Terminal Aerodrome Forecast
Issued by NWS

Home | Current Version | Previous Version | Text Only | Print | Product List | Glossary Off
Versions: 1 2 3 4 5 6 7 8 9 10 11 12

967
FTUS43 KICT 100520
TAFHUT
TAF
KHUT 100520Z 1006/1106 25005KT P6SM SKC
     FM101400 31013KT P6SM SKC
     FM110000 28005KT P6SM SKC=

USA.gov is the U.S. government's official web portal to all federal, state and local government web resources and services.